Time;durP1;ratioP1;P1;durP2;ratioP2;P2;SDS_P1;SDS_P2;PMS_P1;PMS_P2;Temp;Humidity;BMP_temperature;BMP_pressure;BME280_temperature;BME280_humidity;BME280_pressure;Samples;Min_cycle;Max_cycle;Signal;HPM_P1;HPM_P2
2023/03/25 00:01:32;;;;;;;6.77;6.47;;;8.90;99.90;;;;;;5051064;28;20202;-64
2023/03/25 00:03:59;;;;;;;7.90;7.30;;;8.90;99.90;;;;;;5051875;28;20174;-65
2023/03/25 00:06:26;;;;;;;5.77;5.57;;;8.90;99.90;;;;;;5034273;28;20183;-65
2023/03/25 00:08:53;;;;;;;6.20;5.80;;;8.90;99.90;;;;;;5032046;28;20191;-65
2023/03/25 00:11:18;;;;;;;6.90;6.60;;;8.90;99.90;;;;;;5047860;28;20186;-65
2023/03/25 00:13:44;;;;;;;6.20;5.93;;;8.90;99.90;;;;;;5051953;28;20175;-64
2023/03/25 00:16:09;;;;;;;6.87;6.27;;;9.00;99.90;;;;;;5037216;28;20183;-65
2023/03/25 00:18:36;;;;;;;7.03;6.63;;;9.10;99.90;;;;;;5032004;28;20261;-65
2023/03/25 00:21:04;;;;;;;5.73;5.53;;;9.20;99.90;;;;;;5026315;28;20221;-65
2023/03/25 00:23:30;;;;;;;6.73;6.43;;;9.20;99.90;;;;;;5051829;28;20564;-64
2023/03/25 00:25:59;;;;;;;5.70;5.40;;;9.30;99.90;;;;;;5039818;28;20187;-64
2023/03/25 00:28:32;;;;;;;5.50;5.20;;;9.40;99.90;;;;;;5031950;28;20176;-65
2023/03/25 00:31:00;;;;;;;6.03;5.47;;;9.50;99.90;;;;;;5042294;28;20258;-64
2023/03/25 00:33:26;;;;;;;5.67;5.13;;;9.60;99.90;;;;;;5051713;28;20619;-65
2023/03/25 00:35:57;;;;;;;5.13;4.73;;;9.50;99.90;;;;;;5041443;28;20210;-64
2023/03/25 00:38:34;;;;;;;6.43;6.13;;;9.60;99.90;;;;;;5039576;28;20183;-65
2023/03/25 00:41:24;;;;;;;5.47;5.00;;;9.60;99.90;;;;;;5051164;28;20237;-64
2023/03/25 00:44:00;;;;;;;6.23;5.10;;;9.70;99.90;;;;;;5039964;28;20191;-64
2023/03/25 00:46:28;;;;;;;8.70;8.30;;;9.60;99.90;;;;;;5031604;28;20182;-64
2023/03/25 00:48:55;;;;;;;6.33;5.93;;;9.60;99.90;;;;;;5042401;28;20194;-65
2023/03/25 00:51:22;;;;;;;5.67;5.30;;;9.60;99.90;;;;;;5051102;28;20586;-64
2023/03/25 00:53:54;;;;;;;6.13;5.63;;;9.60;99.90;;;;;;5040587;28;20179;-64
2023/03/25 00:56:21;;;;;;;8.07;7.57;;;9.60;99.90;;;;;;5031643;28;20179;-65
2023/03/25 00:58:47;;;;;;;10.73;10.23;;;9.60;99.90;;;;;;5040466;28;20671;-64
2023/03/25 01:01:15;;;;;;;6.67;6.20;;;9.70;99.90;;;;;;5050662;28;20206;-64
2023/03/25 01:03:45;;;;;;;8.87;8.50;;;9.70;99.90;;;;;;5043449;28;20241;-64
2023/03/25 01:06:15;;;;;;;11.70;11.03;;;9.70;99.90;;;;;;5037380;28;20178;-64
2023/03/25 01:08:42;;;;;;;8.27;7.70;;;9.70;99.90;;;;;;5050381;28;20679;-64
2023/03/25 01:11:21;;;;;;;5.87;5.57;;;9.70;99.90;;;;;;5044769;28;20187;-64
2023/03/25 01:13:46;;;;;;;6.70;6.20;;;9.70;99.90;;;;;;5031011;28;20210;-64
2023/03/25 01:16:12;;;;;;;7.17;6.73;;;9.70;99.90;;;;;;5036488;28;20681;-64
2023/03/25 01:18:38;;;;;;;7.13;6.67;;;9.70;99.90;;;;;;5050933;28;20231;-65
2023/03/25 01:21:05;;;;;;;6.03;5.73;;;9.70;99.90;;;;;;5046888;28;20600;-64
2023/03/25 01:23:31;;;;;;;6.50;6.20;;;9.60;99.90;;;;;;5031222;28;20176;-65
2023/03/25 01:25:57;;;;;;;8.10;7.77;;;9.60;99.90;;;;;;5032874;28;20176;-64
2023/03/25 01:28:22;;;;;;;9.07;8.40;;;9.60;99.90;;;;;;5051126;28;20170;-64
2023/03/25 01:30:48;;;;;;;5.20;4.90;;;9.60;99.90;;;;;;5048252;28;20175;-64
2023/03/25 01:33:14;;;;;;;7.37;6.73;;;9.60;99.90;;;;;;5034619;28;20533;-64
2023/03/25 01:35:40;;;;;;;7.97;7.67;;;9.60;99.90;;;;;;5030708;28;20187;-65
2023/03/25 01:38:05;;;;;;;8.83;8.30;;;9.60;99.90;;;;;;5030918;28;20184;-65
2023/03/25 01:40:31;;;;;;;8.43;8.07;;;9.60;99.90;;;;;;5030637;28;20225;-64
2023/03/25 01:42:57;;;;;;;7.30;6.83;;;9.60;99.90;;;;;;5047105;28;20232;-64
2023/03/25 01:45:27;;;;;;;7.37;7.07;;;9.70;99.90;;;;;;5051033;28;20199;-64
2023/03/25 01:48:09;;;;;;;7.37;6.93;;;9.60;99.90;;;;;;5015832;28;20175;-64
2023/03/25 01:50:36;;;;;;;6.27;5.97;;;9.60;99.90;;;;;;5030792;28;20238;-65
2023/03/25 01:53:04;;;;;;;7.60;7.20;;;9.50;99.90;;;;;;5048420;28;20218;-64
2023/03/25 01:55:33;;;;;;;5.23;5.03;;;9.40;99.90;;;;;;5038044;28;20794;-65
2023/03/25 01:58:03;;;;;;;5.77;5.57;;;9.40;99.90;;;;;;5030841;28;20204;-64
2023/03/25 02:00:30;;;;;;;6.60;4.97;;;9.30;99.90;;;;;;5024235;28;20202;-65
2023/03/25 02:02:58;;;;;;;5.53;5.07;;;9.30;99.90;;;;;;5050726;28;20213;-65
2023/03/25 02:05:35;;;;;;;5.53;5.33;;;9.30;99.90;;;;;;5025322;28;20541;-64
2023/03/25 02:08:04;;;;;;;4.97;4.77;;;9.30;99.90;;;;;;5034229;28;20175;-65
2023/03/25 02:10:31;;;;;;;6.30;6.00;;;9.20;99.90;;;;;;5044601;28;20222;-64
2023/03/25 02:12:57;;;;;;;6.40;6.10;;;9.20;99.90;;;;;;5054310;28;20683;-64
2023/03/25 02:15:23;;;;;;;6.37;5.97;;;9.20;99.90;;;;;;5044789;28;20172;-64
2023/03/25 02:18:28;;;;;;;6.63;5.97;;;9.20;99.90;;;;;;5016333;28;20317;-64
2023/03/25 02:21:18;;;;;;;5.90;5.50;;;9.20;99.90;;;;;;5046439;28;20241;-64
2023/03/25 02:23:58;;;;;;;5.23;4.93;;;9.10;99.90;;;;;;5054273;28;20240;-64
2023/03/25 02:26:42;;;;;;;6.83;6.47;;;9.10;99.90;;;;;;5037041;28;20668;-66
2023/03/25 02:29:11;;;;;;;5.63;5.13;;;9.00;99.90;;;;;;5050792;28;20201;-64
2023/03/25 02:31:43;;;;;;;7.57;5.70;;;8.90;99.90;;;;;;5053770;28;20636;-64
2023/03/25 02:34:12;;;;;;;6.23;5.93;;;8.90;99.90;;;;;;5036640;28;20175;-64
2023/03/25 02:36:57;;;;;;;6.70;6.30;;;8.90;99.90;;;;;;5034071;28;20763;-64
2023/03/25 02:39:41;;;;;;;6.27;5.97;;;8.90;99.90;;;;;;5050691;28;20309;-64
2023/03/25 02:42:32;;;;;;;6.50;6.20;;;8.90;99.90;;;;;;5052481;28;20509;-64
2023/03/25 02:45:17;;;;;;;7.67;7.27;;;8.90;99.90;;;;;;5012947;28;20187;-66
2023/03/25 02:47:49;;;;;;;9.90;9.23;;;9.00;99.90;;;;;;5002183;28;20537;-64
2023/03/25 02:50:33;;;;;;;7.30;6.80;;;9.00;99.90;;;;;;5052072;28;20283;-64
2023/03/25 02:53:03;;;;;;;6.43;6.13;;;9.10;99.90;;;;;;5050837;28;20625;-64
2023/03/25 02:55:30;;;;;;;6.50;6.20;;;9.10;99.90;;;;;;5052536;28;20186;-64
2023/03/25 02:57:58;;;;;;;5.63;5.43;;;9.20;99.90;;;;;;5048091;28;20171;-64
2023/03/25 03:00:27;;;;;;;6.10;5.70;;;9.30;99.90;;;;;;5033050;28;20203;-64
2023/03/25 03:03:04;;;;;;;5.60;5.20;;;9.30;99.90;;;;;;5034977;28;20172;-64
2023/03/25 03:05:32;;;;;;;6.70;6.10;;;9.40;99.90;;;;;;5052417;28;20174;-64
2023/03/25 03:08:13;;;;;;;5.23;4.93;;;9.40;99.90;;;;;;5048827;28;20167;-64
2023/03/25 03:10:54;;;;;;;6.37;5.83;;;9.40;99.90;;;;;;5031980;28;20187;-64
2023/03/25 03:13:35;;;;;;;5.50;5.10;;;9.40;99.90;;;;;;5037599;28;20178;-64
2023/03/25 03:16:23;;;;;;;5.13;4.83;;;9.50;99.90;;;;;;5051348;28;20376;-65
2023/03/25 03:19:15;;;;;;;5.57;5.27;;;9.50;99.90;;;;;;5042845;28;20214;-63
2023/03/25 03:22:01;;;;;;;5.93;5.63;;;9.40;99.90;;;;;;5039053;28;20199;-64
2023/03/25 03:24:32;;;;;;;6.73;6.43;;;9.40;99.90;;;;;;5052120;28;20171;-63
2023/03/25 03:27:22;;;;;;;5.73;5.50;;;9.40;99.90;;;;;;5042033;28;20172;-64
2023/03/25 03:29:53;;;;;;;6.07;5.67;;;9.40;99.90;;;;;;5013827;28;20574;-65
2023/03/25 03:32:48;;;;;;;6.10;5.80;;;9.40;99.90;;;;;;5043130;28;20573;-65
2023/03/25 03:35:48;;;;;;;5.90;5.60;;;9.40;99.90;;;;;;5051814;28;20175;-65
2023/03/25 03:38:15;;;;;;;6.00;5.70;;;9.40;99.90;;;;;;5033493;28;20188;-65
2023/03/25 03:40:47;;;;;;;7.63;7.03;;;9.40;99.90;;;;;;4994469;28;1083691;-65
2023/03/25 03:43:18;;;;;;;6.40;5.83;;;9.40;99.90;;;;;;5050054;28;20194;-64
2023/03/25 03:45:50;;;;;;;7.80;7.17;;;9.30;99.90;;;;;;5052615;28;20588;-64
2023/03/25 03:48:30;;;;;;;7.43;7.13;;;9.30;99.90;;;;;;5034760;28;20183;-64
2023/03/25 03:51:02;;;;;;;6.50;6.20;;;9.30;99.90;;;;;;5031166;28;20559;-64
2023/03/25 03:53:36;;;;;;;7.07;6.47;;;9.20;99.90;;;;;;5047264;28;20210;-65
2023/03/25 03:56:07;;;;;;;6.63;6.13;;;9.20;99.90;;;;;;5032285;28;20171;-64
2023/03/25 03:58:37;;;;;;;6.00;5.70;;;9.20;99.90;;;;;;5037300;28;20183;-65
2023/03/25 04:01:33;;;;;;;6.30;6.00;;;9.20;99.90;;;;;;5051785;28;20563;-64
2023/03/25 04:04:02;;;;;;;7.87;7.17;;;9.20;99.90;;;;;;5043526;28;20570;-65
2023/03/25 04:06:55;;;;;;;6.03;5.73;;;9.20;99.90;;;;;;5032275;28;20190;-65
2023/03/25 04:09:53;;;;;;;6.70;6.30;;;9.20;99.90;;;;;;5042440;28;20199;-65
2023/03/25 04:12:26;;;;;;;7.53;6.87;;;9.20;99.90;;;;;;5052241;28;20179;-65
2023/03/25 04:14:54;;;;;;;6.50;6.03;;;9.20;99.90;;;;;;5037402;28;20189;-64
2023/03/25 04:17:21;;;;;;;6.17;5.87;;;9.20;99.90;;;;;;5035566;28;20198;-63
2023/03/25 04:19:47;;;;;;;5.70;5.20;;;9.20;99.90;;;;;;5051426;28;20202;-65
2023/03/25 04:22:16;;;;;;;6.37;6.07;;;9.20;99.90;;;;;;5049165;28;20179;-65
2023/03/25 04:24:42;;;;;;;6.07;5.80;;;9.20;99.90;;;;;;5031947;28;20182;-64
2023/03/25 04:27:12;;;;;;;5.23;4.90;;;9.20;99.90;;;;;;5032470;28;20187;-65
2023/03/25 04:29:39;;;;;;;6.77;5.97;;;9.30;99.90;;;;;;5051077;28;20198;-63
2023/03/25 04:32:05;;;;;;;7.00;6.50;;;9.30;99.90;;;;;;5051237;28;20174;-64
2023/03/25 04:34:31;;;;;;;5.53;5.23;;;9.20;99.90;;;;;;5031925;28;20545;-65
2023/03/25 04:36:57;;;;;;;5.77;5.53;;;9.30;99.90;;;;;;5031874;28;20222;-65
2023/03/25 04:39:23;;;;;;;6.87;6.47;;;9.30;99.90;;;;;;5050072;28;20211;-64
2023/03/25 04:41:49;;;;;;;6.73;6.27;;;9.30;99.90;;;;;;5051476;28;20646;-65
2023/03/25 04:44:16;;;;;;;5.93;5.53;;;9.30;99.90;;;;;;5034579;28;20482;-65
2023/03/25 04:46:42;;;;;;;6.03;5.53;;;9.40;99.90;;;;;;5046276;28;20186;-65
2023/03/25 04:49:16;;;;;;;5.23;5.03;;;9.30;99.90;;;;;;5051365;28;20621;-64
2023/03/25 04:51:43;;;;;;;6.00;5.70;;;9.30;99.90;;;;;;5037170;28;20183;-64
2023/03/25 04:54:09;;;;;;;7.10;6.80;;;9.30;99.90;;;;;;5031713;28;20163;-64
2023/03/25 04:56:36;;;;;;;7.07;6.43;;;9.40;99.90;;;;;;5044214;28;20509;-65
2023/03/25 04:59:03;;;;;;;5.23;4.93;;;9.40;99.90;;;;;;5051121;28;20660;-65
2023/03/25 05:01:29;;;;;;;7.97;5.93;;;9.40;99.90;;;;;;5039964;28;20266;-65
2023/03/25 05:04:04;;;;;;;6.43;5.93;;;9.40;99.90;;;;;;5031345;28;20629;-64
2023/03/25 05:06:33;;;;;;;6.30;5.90;;;9.40;99.90;;;;;;5041804;28;20201;-65
2023/03/25 05:09:03;;;;;;;5.83;5.60;;;9.50;99.90;;;;;;5051096;28;20716;-65
2023/03/25 05:11:34;;;;;;;6.27;5.87;;;9.50;99.90;;;;;;5049381;28;20260;-65
2023/03/25 05:14:00;;;;;;;8.07;5.77;;;9.50;99.90;;;;;;5050999;28;20543;-65
2023/03/25 05:16:26;;;;;;;7.87;7.47;;;9.50;99.90;;;;;;5042395;28;20187;-64
2023/03/25 05:18:51;;;;;;;5.53;5.23;;;9.50;99.90;;;;;;5031144;28;20579;-65
2023/03/25 05:21:17;;;;;;;6.50;6.00;;;9.50;99.90;;;;;;5037538;28;20656;-67
2023/03/25 05:23:43;;;;;;;7.30;5.60;;;9.50;99.90;;;;;;5033074;28;20186;-64
2023/03/25 05:26:11;;;;;;;6.23;5.30;;;9.50;99.90;;;;;;5045692;28;20470;-64
2023/03/25 05:28:37;;;;;;;4.90;4.70;;;9.50;99.90;;;;;;5031229;28;20225;-64
2023/03/25 05:31:07;;;;;;;5.30;4.90;;;9.60;99.90;;;;;;5033800;28;20183;-64
2023/03/25 05:33:35;;;;;;;5.77;4.73;;;9.60;99.90;;;;;;5051207;28;20194;-64
2023/03/25 05:36:02;;;;;;;7.80;4.93;;;9.60;99.90;;;;;;5049112;28;20587;-66
2023/03/25 05:38:28;;;;;;;5.03;4.77;;;9.50;99.90;;;;;;5015880;28;20687;-67
2023/03/25 05:40:53;;;;;;;6.10;5.80;;;9.40;99.90;;;;;;5034542;28;20270;-66
2023/03/25 05:43:22;;;;;;;6.27;5.87;;;9.40;99.90;;;;;;5034995;28;20171;-66
2023/03/25 05:45:48;;;;;;;5.80;5.47;;;9.40;99.90;;;;;;5015039;28;20184;-64
2023/03/25 05:48:14;;;;;;;5.40;5.00;;;9.40;99.90;;;;;;5014994;28;20630;-64
2023/03/25 05:50:42;;;;;;;5.47;5.07;;;9.40;99.90;;;;;;5051561;28;20206;-66
2023/03/25 05:53:12;;;;;;;5.60;5.17;;;9.50;99.90;;;;;;5045851;28;20186;-65
2023/03/25 05:55:38;;;;;;;5.77;5.47;;;9.50;99.90;;;;;;5034715;28;20176;-64
2023/03/25 05:58:03;;;;;;;5.00;4.80;;;9.50;99.90;;;;;;5041520;28;20252;-64
2023/03/25 06:00:29;;;;;;;8.10;7.50;;;9.50;99.90;;;;;;5054068;28;20210;-65
2023/03/25 06:02:57;;;;;;;9.63;8.73;;;9.60;99.90;;;;;;5048726;28;20179;-63
2023/03/25 06:05:24;;;;;;;7.87;7.47;;;9.60;99.90;;;;;;5034553;28;20168;-64
2023/03/25 06:07:54;;;;;;;6.57;6.27;;;9.60;99.90;;;;;;5038248;28;20267;-64
2023/03/25 06:10:21;;;;;;;10.00;9.37;;;9.60;99.90;;;;;;5053937;28;20574;-65
2023/03/25 06:12:47;;;;;;;6.23;5.63;;;9.50;99.90;;;;;;5051282;28;20615;-65
2023/03/25 06:15:20;;;;;;;11.27;10.30;;;9.30;99.90;;;;;;5034524;28;20179;-66
2023/03/25 06:17:46;;;;;;;6.60;6.00;;;9.10;99.90;;;;;;5036224;28;20641;-65
2023/03/25 06:20:15;;;;;;;7.77;5.93;;;8.80;99.90;;;;;;5035781;28;20210;-65
2023/03/25 06:22:43;;;;;;;6.33;5.83;;;8.60;99.90;;;;;;5053286;28;20175;-65
2023/03/25 06:25:10;;;;;;;6.57;6.10;;;8.50;99.90;;;;;;5034268;28;20637;-65
2023/03/25 06:27:39;;;;;;;9.23;8.53;;;8.40;99.90;;;;;;5034174;28;20174;-65
2023/03/25 06:30:09;;;;;;;6.87;6.17;;;8.40;99.90;;;;;;5034901;28;20203;-66
2023/03/25 06:32:35;;;;;;;6.77;6.13;;;8.30;99.90;;;;;;5034114;28;20586;-65
2023/03/25 06:35:01;;;;;;;7.57;6.93;;;8.30;99.90;;;;;;5052297;28;20178;-65
2023/03/25 06:37:27;;;;;;;7.40;6.67;;;8.30;99.90;;;;;;5054055;28;20175;-65
2023/03/25 06:39:55;;;;;;;6.57;6.23;;;8.40;99.90;;;;;;5036334;28;20226;-64
2023/03/25 06:42:30;;;;;;;6.00;5.60;;;8.40;99.90;;;;;;5033991;28;20163;-65
2023/03/25 06:44:55;;;;;;;6.70;6.20;;;8.40;99.90;;;;;;5031943;28;20174;-64
2023/03/25 06:47:22;;;;;;;6.10;5.80;;;8.50;99.90;;;;;;5053915;28;20177;-65
2023/03/25 06:49:48;;;;;;;10.27;5.87;;;8.50;99.90;;;;;;5037886;28;20233;-65
2023/03/25 06:52:13;;;;;;;7.80;7.13;;;8.50;99.90;;;;;;5033038;28;20680;-65
2023/03/25 06:54:40;;;;;;;6.87;6.57;;;8.50;99.90;;;;;;5046629;28;20560;-66
2023/03/25 06:57:05;;;;;;;9.70;9.03;;;8.60;99.90;;;;;;5044271;28;20279;-65
2023/03/25 06:59:31;;;;;;;6.70;6.40;;;8.60;99.90;;;;;;5030423;28;20651;-65
2023/03/25 07:01:57;;;;;;;6.37;6.07;;;8.70;99.90;;;;;;5038656;28;20245;-64
2023/03/25 07:04:23;;;;;;;6.90;6.23;;;8.80;99.90;;;;;;5052051;28;20655;-65
2023/03/25 07:06:48;;;;;;;5.83;5.50;;;8.90;99.90;;;;;;5046760;28;20183;-64
2023/03/25 07:09:14;;;;;;;6.27;5.97;;;9.10;99.90;;;;;;5032117;28;20197;-64
2023/03/25 07:11:40;;;;;;;8.03;7.50;;;9.10;99.90;;;;;;5034363;28;20588;-64
2023/03/25 07:14:06;;;;;;;7.63;7.23;;;9.10;99.90;;;;;;5032967;28;20176;-65
2023/03/25 07:16:31;;;;;;;6.53;6.13;;;9.10;99.90;;;;;;5034447;28;20189;-65
2023/03/25 07:18:57;;;;;;;18.17;17.40;;;9.20;99.90;;;;;;5052609;28;20672;-64
2023/03/25 07:21:24;;;;;;;8.97;8.10;;;9.30;99.90;;;;;;5052554;28;20563;-64
2023/03/25 07:23:49;;;;;;;7.27;6.73;;;9.40;99.90;;;;;;5051484;28;20186;-65
2023/03/25 07:26:15;;;;;;;5.70;5.30;;;9.60;99.90;;;;;;5052623;28;20519;-63
2023/03/25 07:28:41;;;;;;;5.53;5.23;;;9.90;99.90;;;;;;5034693;28;20199;-65
2023/03/25 07:31:09;;;;;;;5.40;5.03;;;10.00;99.90;;;;;;5032251;28;20211;-64
2023/03/25 07:33:35;;;;;;;8.67;7.97;;;10.10;99.90;;;;;;5049004;28;20552;-65
2023/03/25 07:36:02;;;;;;;6.23;5.83;;;10.00;99.90;;;;;;5052621;28;20178;-65
2023/03/25 07:38:27;;;;;;;11.07;6.00;;;10.00;99.90;;;;;;5050398;28;20179;-64
2023/03/25 07:40:53;;;;;;;6.43;6.07;;;10.00;99.90;;;;;;5051503;28;20636;-64
2023/03/25 07:43:19;;;;;;;6.27;5.67;;;10.00;99.90;;;;;;5039609;28;20171;-64
2023/03/25 07:45:45;;;;;;;7.97;5.20;;;10.00;99.90;;;;;;5015060;28;20172;-64
2023/03/25 07:48:13;;;;;;;6.30;5.70;;;10.00;99.90;;;;;;5025461;28;20179;-65
2023/03/25 07:50:39;;;;;;;8.77;5.40;;;10.10;99.90;;;;;;5045771;28;20199;-63
2023/03/25 07:53:05;;;;;;;5.67;5.10;;;10.10;99.90;;;;;;5039588;28;20616;-64
2023/03/25 07:55:31;;;;;;;8.63;7.70;;;10.10;99.90;;;;;;5052097;28;20210;-64
2023/03/25 07:58:01;;;;;;;8.27;6.20;;;10.10;99.90;;;;;;5046820;28;20194;-63
2023/03/25 08:00:28;;;;;;;7.63;6.20;;;10.00;99.90;;;;;;5032147;28;20211;-64
2023/03/25 08:02:53;;;;;;;6.77;6.37;;;10.00;99.90;;;;;;5036161;28;20170;-64
2023/03/25 08:05:22;;;;;;;16.23;15.37;;;9.90;99.90;;;;;;5051823;28;20214;-64
2023/03/25 08:07:49;;;;;;;8.67;7.87;;;9.90;99.90;;;;;;5048872;28;20209;-64
2023/03/25 08:10:15;;;;;;;16.53;15.60;;;9.80;99.90;;;;;;5031105;28;20191;-64
2023/03/25 08:12:42;;;;;;;8.03;7.43;;;9.90;99.90;;;;;;5033182;28;20168;-64
2023/03/25 08:15:09;;;;;;;6.77;6.27;;;10.00;99.90;;;;;;5051807;28;20253;-64
2023/03/25 08:17:34;;;;;;;7.73;6.87;;;10.40;99.90;;;;;;5050649;28;20174;-65
2023/03/25 08:20:03;;;;;;;5.93;4.77;;;10.80;99.90;;;;;;5031432;28;20243;-63
2023/03/25 08:22:29;;;;;;;6.63;4.77;;;11.00;99.90;;;;;;5031973;28;20179;-64
2023/03/25 08:24:54;;;;;;;5.10;4.70;;;11.00;99.90;;;;;;5051163;28;20544;-63
2023/03/25 08:27:20;;;;;;;10.17;5.17;;;10.90;99.90;;;;;;5051755;28;20171;-63
2023/03/25 08:29:53;;;;;;;6.40;4.73;;;10.90;99.90;;;;;;5032247;28;20684;-64
2023/03/25 08:32:23;;;;;;;6.17;5.27;;;10.90;99.90;;;;;;5031841;28;20186;-64
2023/03/25 08:34:49;;;;;;;5.17;4.77;;;10.90;99.90;;;;;;5048947;28;20254;-64
2023/03/25 08:37:14;;;;;;;6.10;4.77;;;10.90;99.90;;;;;;5051365;28;20278;-64
2023/03/25 08:39:43;;;;;;;7.37;6.67;;;10.90;99.90;;;;;;5050748;28;20207;-64
2023/03/25 08:42:10;;;;;;;7.27;4.87;;;10.90;99.90;;;;;;5051440;28;20179;-63
2023/03/25 08:44:36;;;;;;;4.60;4.20;;;11.10;99.90;;;;;;5036813;28;20195;-64
2023/03/25 08:47:02;;;;;;;6.07;5.73;;;11.10;99.90;;;;;;5043236;28;20272;-64
2023/03/25 08:49:29;;;;;;;9.73;7.07;;;11.10;99.90;;;;;;5051102;28;20198;-64
2023/03/25 08:51:56;;;;;;;5.80;4.60;;;11.20;99.90;;;;;;5050647;28;20167;-64
2023/03/25 08:54:23;;;;;;;6.33;5.50;;;11.30;99.90;;;;;;5050657;28;20182;-64
2023/03/25 08:56:48;;;;;;;7.43;5.37;;;11.30;99.90;;;;;;5041832;28;20187;-64
2023/03/25 08:59:14;;;;;;;7.70;5.20;;;11.40;99.90;;;;;;5031093;28;20195;-63
2023/03/25 09:01:41;;;;;;;5.70;5.10;;;11.40;99.90;;;;;;5038053;28;20594;-63
2023/03/25 09:04:06;;;;;;;5.57;5.10;;;11.20;99.90;;;;;;5049162;28;20170;-64
2023/03/25 09:06:32;;;;;;;5.10;4.60;;;11.10;99.90;;;;;;5036250;28;20254;-63
2023/03/25 09:08:59;;;;;;;4.60;4.30;;;11.10;99.90;;;;;;5050676;28;20687;-64
2023/03/25 09:11:25;;;;;;;8.97;4.80;;;11.20;99.90;;;;;;5049217;28;20641;-64
2023/03/25 09:13:50;;;;;;;5.43;4.87;;;11.30;99.90;;;;;;5052171;28;20600;-64
2023/03/25 09:16:16;;;;;;;5.93;5.57;;;11.70;99.90;;;;;;5053105;28;20213;-64
2023/03/25 09:18:42;;;;;;;12.87;12.27;;;12.00;99.90;;;;;;5034651;28;20680;-64
2023/03/25 09:21:07;;;;;;;8.23;7.50;;;11.90;99.90;;;;;;5034158;28;20203;-64
2023/03/25 09:23:33;;;;;;;5.10;4.70;;;11.90;99.90;;;;;;5036689;28;20198;-63
2023/03/25 09:26:01;;;;;;;6.67;6.37;;;12.00;99.90;;;;;;5034336;28;20175;-64
2023/03/25 09:28:27;;;;;;;6.07;5.43;;;12.10;99.90;;;;;;5052995;28;20171;-64
2023/03/25 09:30:53;;;;;;;4.87;3.77;;;12.10;99.90;;;;;;5054553;28;20227;-63
2023/03/25 09:33:19;;;;;;;6.33;4.77;;;11.90;99.90;;;;;;5038313;28;20184;-63
2023/03/25 09:35:45;;;;;;;4.90;4.60;;;12.00;99.90;;;;;;5034660;28;20185;-63
2023/03/25 09:38:11;;;;;;;5.50;4.97;;;12.50;99.90;;;;;;5045476;28;20175;-63
2023/03/25 09:40:41;;;;;;;4.13;3.83;;;13.40;99.90;;;;;;5035835;28;20207;-63
2023/03/25 09:43:15;;;;;;;4.87;4.27;;;14.20;99.90;;;;;;5034968;28;20168;-63
2023/03/25 09:45:48;;;;;;;6.77;4.00;;;14.60;99.90;;;;;;5033960;28;20582;-63
2023/03/25 09:48:26;;;;;;;6.70;4.73;;;14.60;99.90;;;;;;5032121;28;20218;-64
2023/03/25 09:50:51;;;;;;;4.93;4.60;;;14.40;99.90;;;;;;5047964;28;20179;-64
2023/03/25 09:53:42;;;;;;;8.63;4.73;;;14.20;99.90;;;;;;5054447;28;20185;-63
2023/03/25 09:56:16;;;;;;;5.87;4.67;;;13.70;99.90;;;;;;5038686;28;20266;-63
2023/03/25 09:58:47;;;;;;;5.60;4.73;;;13.40;99.90;;;;;;5016731;28;20202;-63
2023/03/25 10:01:45;;;;;;;8.07;4.83;;;13.10;99.90;;;;;;5049322;28;20245;-63
2023/03/25 10:04:31;;;;;;;4.97;4.53;;;12.80;99.90;;;;;;5034372;28;20194;-63
2023/03/25 10:07:09;;;;;;;4.43;4.13;;;12.50;99.90;;;;;;5014569;28;20172;-63
2023/03/25 10:09:57;;;;;;;6.57;6.27;;;12.40;99.90;;;;;;5015805;28;20192;-64
2023/03/25 10:13:07;;;;;;;5.30;4.73;;;12.40;99.90;;;;;;5014644;28;20184;-63
2023/03/25 10:15:47;;;;;;;5.27;4.47;;;12.60;99.90;;;;;;4923303;29;20597;-63
2023/03/25 10:18:54;;;;;;;5.67;4.63;;;12.70;99.90;;;;;;5015594;28;20262;-64
2023/03/25 10:22:17;;;;;;;7.67;5.20;;;12.80;99.90;;;;;;5039182;28;20222;-64
2023/03/25 10:25:02;;;;;;;6.10;5.70;;;13.00;99.90;;;;;;4952865;28;20322;-63
2023/03/25 10:27:38;;;;;;;8.37;5.00;;;12.90;99.90;;;;;;4934643;29;20183;-62
2023/03/25 10:30:12;;;;;;;6.13;4.83;;;12.70;99.90;;;;;;4998728;28;20234;-63
2023/03/25 10:32:50;;;;;;;9.37;4.83;;;12.90;99.90;;;;;;5033865;28;20178;-63
2023/03/25 10:35:29;;;;;;;8.23;5.03;;;13.00;99.90;;;;;;5042663;28;20583;-63
2023/03/25 10:38:01;;;;;;;5.27;4.70;;;13.00;99.90;;;;;;5053753;28;20220;-63
2023/03/25 10:40:34;;;;;;;6.57;5.50;;;13.00;99.90;;;;;;5033189;28;20233;-63
2023/03/25 10:43:20;;;;;;;7.90;4.57;;;12.90;99.90;;;;;;5034101;28;20191;-64
2023/03/25 10:45:47;;;;;;;10.73;5.20;;;12.70;99.90;;;;;;5053654;28;20177;-64
2023/03/25 10:48:21;;;;;;;5.90;4.23;;;13.00;99.90;;;;;;5046288;28;20168;-63
2023/03/25 10:50:48;;;;;;;5.67;4.57;;;13.30;99.90;;;;;;5044960;28;20242;-62
2023/03/25 10:53:23;;;;;;;6.33;3.90;;;13.50;99.90;;;;;;5034463;28;20187;-64
2023/03/25 10:55:55;;;;;;;4.87;4.40;;;13.60;99.90;;;;;;5053571;28;20182;-62
2023/03/25 10:58:22;;;;;;;4.07;3.87;;;13.50;99.90;;;;;;5051216;28;20175;-65
2023/03/25 11:00:47;;;;;;;4.77;4.30;;;13.30;99.90;;;;;;5033216;28;20296;-64
2023/03/25 11:03:23;;;;;;;4.53;4.23;;;13.30;99.90;;;;;;5033327;28;20319;-66
2023/03/25 11:05:50;;;;;;;5.23;4.03;;;13.40;99.90;;;;;;5013726;28;20195;-63
2023/03/25 11:08:20;;;;;;;5.33;5.03;;;13.40;99.90;;;;;;5013678;28;20642;-64
2023/03/25 11:10:54;;;;;;;4.70;4.30;;;13.60;99.90;;;;;;5032233;28;20214;-64
2023/03/25 11:13:24;;;;;;;8.43;5.57;;;14.00;99.90;;;;;;5033399;28;20276;-65
2023/03/25 11:15:53;;;;;;;4.67;4.27;;;14.10;99.90;;;;;;5020470;28;20269;-65
2023/03/25 11:18:26;;;;;;;5.33;4.20;;;14.30;99.90;;;;;;5033034;28;20171;-64
2023/03/25 11:21:00;;;;;;;4.53;4.23;;;14.50;99.90;;;;;;5026089;28;20337;-65
2023/03/25 11:23:34;;;;;;;4.77;4.30;;;14.60;99.90;;;;;;5033104;28;20237;-66
2023/03/25 11:26:35;;;;;;;5.97;4.97;;;14.50;99.90;;;;;;5052542;28;20316;-65
2023/03/25 11:29:10;;;;;;;4.37;3.83;;;14.30;99.90;;;;;;5015849;28;20656;-64
2023/03/25 11:31:36;;;;;;;4.93;4.50;;;14.20;99.90;;;;;;5032969;28;20250;-65
2023/03/25 11:34:13;;;;;;;5.70;4.20;;;14.00;99.90;;;;;;5036096;28;20225;-64
2023/03/25 11:36:54;;;;;;;5.27;4.50;;;13.80;99.90;;;;;;5051759;28;20206;-65
2023/03/25 11:39:22;;;;;;;5.30;4.13;;;13.90;99.90;;;;;;5012312;28;20561;-64
2023/03/25 11:41:49;;;;;;;5.20;4.00;;;13.80;99.90;;;;;;5012882;28;20206;-65
2023/03/25 11:44:28;;;;;;;11.07;4.40;;;13.50;99.90;;;;;;5034362;28;20210;-64
2023/03/25 11:47:03;;;;;;;6.30;4.40;;;13.10;99.90;;;;;;5045374;28;20226;-65
2023/03/25 11:49:34;;;;;;;11.13;4.37;;;12.80;99.90;;;;;;5032424;28;20187;-66
2023/03/25 11:52:11;;;;;;;4.13;3.93;;;12.50;99.90;;;;;;5045853;28;20179;-64
2023/03/25 11:54:38;;;;;;;8.67;4.97;;;12.80;99.90;;;;;;5052127;28;20163;-64
2023/03/25 11:57:09;;;;;;;4.17;3.97;;;13.20;99.90;;;;;;5036288;28;20532;-65
2023/03/25 11:59:41;;;;;;;5.50;4.47;;;13.30;99.90;;;;;;5031870;28;20552;-65
2023/03/25 12:02:28;;;;;;;4.10;3.90;;;13.30;99.90;;;;;;5027623;28;20182;-63
2023/03/25 12:05:07;;;;;;;4.93;4.50;;;13.30;99.90;;;;;;5052220;28;20575;-65
2023/03/25 12:07:50;;;;;;;6.33;4.13;;;13.30;99.90;;;;;;5035335;28;20179;-65
2023/03/25 12:10:33;;;;;;;4.50;4.10;;;13.40;99.90;;;;;;5038016;28;20202;-64
2023/03/25 12:13:11;;;;;;;8.80;5.40;;;13.20;99.90;;;;;;5051333;28;20210;-65
2023/03/25 12:15:52;;;;;;;4.13;3.73;;;12.70;99.90;;;;;;5042503;28;20265;-64
2023/03/25 12:18:34;;;;;;;4.30;4.00;;;12.60;99.90;;;;;;5014106;28;20183;-64
2023/03/25 12:21:25;;;;;;;6.70;4.10;;;12.40;99.90;;;;;;5043259;28;20216;-65
2023/03/25 12:24:28;;;;;;;5.07;4.43;;;12.30;99.90;;;;;;5051769;28;20250;-64
2023/03/25 12:27:23;;;;;;;5.93;4.23;;;12.40;99.90;;;;;;5032588;28;20225;-65
2023/03/25 12:30:14;;;;;;;7.93;5.77;;;12.80;99.90;;;;;;5032312;28;20278;-63
2023/03/25 12:33:04;;;;;;;5.53;5.10;;;13.90;99.90;;;;;;5051702;28;20183;-63
2023/03/25 12:35:49;;;;;;;8.60;4.50;;;14.30;99.90;;;;;;5045179;28;20641;-64
2023/03/25 12:38:37;;;;;;;4.37;4.07;;;14.80;99.90;;;;;;5037894;28;20179;-63
2023/03/25 12:41:16;;;;;;;6.23;5.80;;;15.00;99.90;;;;;;5045116;28;20195;-63
2023/03/25 12:44:20;;;;;;;7.70;6.83;;;15.00;99.90;;;;;;5051600;28;20167;-63
2023/03/25 12:46:49;;;;;;;5.17;4.53;;;14.70;99.90;;;;;;5037753;28;20262;-64
2023/03/25 12:49:30;;;;;;;6.03;5.47;;;14.80;99.90;;;;;;5031073;28;20200;-64
2023/03/25 12:52:14;;;;;;;14.73;13.80;;;14.70;99.90;;;;;;5045267;28;20186;-65
2023/03/25 12:55:06;;;;;;;5.33;4.37;;;14.50;99.90;;;;;;5051335;28;20534;-64
2023/03/25 12:57:43;;;;;;;7.00;6.57;;;14.20;99.90;;;;;;5031358;28;20187;-64
2023/03/25 13:00:34;;;;;;;6.37;3.70;;;14.20;99.90;;;;;;5029873;28;20304;-65
2023/03/25 13:03:11;;;;;;;5.83;5.50;;;14.20;99.90;;;;;;5011469;28;20540;-64
2023/03/25 13:05:57;;;;;;;7.83;7.20;;;13.90;99.90;;;;;;5015254;28;20195;-64
2023/03/25 13:08:34;;;;;;;5.37;4.83;;;13.80;99.90;;;;;;5050934;28;20171;-66
2023/03/25 13:11:07;;;;;;;5.20;4.70;;;13.70;99.90;;;;;;5046154;28;20236;-65
2023/03/25 13:13:37;;;;;;;6.90;5.90;;;13.70;99.90;;;;;;5029440;28;20179;-65
2023/03/25 13:16:08;;;;;;;7.90;7.33;;;13.40;99.90;;;;;;5031728;28;20170;-65
2023/03/25 13:18:40;;;;;;;9.10;4.37;;;13.40;99.90;;;;;;5030900;28;20587;-65